sensor_id;sensor_type;location;lat;lon;timestamp;P1;durP1;ratioP1;P2;durP2;ratioP2
17925;SDS011;9088;55.674;13.354;2023-03-12T00:00:01;0.20;;;0.20;;
17925;SDS011;9088;55.674;13.354;2023-03-12T00:02:33;0.20;;;0.20;;
17925;SDS011;9088;55.674;13.354;2023-03-12T00:05:00;0.20;;;0.20;;
17925;SDS011;9088;55.674;13.354;2023-03-12T00:07:28;0.20;;;0.20;;
17925;SDS011;9088;55.674;13.354;2023-03-12T00:09:55;0.20;;;0.20;;
17925;SDS011;9088;55.674;13.354;2023-03-12T00:12:22;0.20;;;0.20;;
17925;SDS011;9088;55.674;13.354;2023-03-12T00:15:01;0.20;;;0.20;;
17925;SDS011;9088;55.674;13.354;2023-03-12T00:17:28;0.20;;;0.20;;
17925;SDS011;9088;55.674;13.354;2023-03-12T00:19:56;0.20;;;0.20;;
17925;SDS011;9088;55.674;13.354;2023-03-12T00:22:26;0.20;;;0.20;;
17925;SDS011;9088;55.674;13.354;2023-03-12T00:24:54;0.20;;;0.20;;
17925;SDS011;9088;55.674;13.354;2023-03-12T00:27:22;0.20;;;0.20;;
17925;SDS011;9088;55.674;13.354;2023-03-12T00:29:51;0.20;;;0.20;;
17925;SDS011;9088;55.674;13.354;2023-03-12T00:32:18;0.20;;;0.20;;
17925;SDS011;9088;55.674;13.354;2023-03-12T00:34:49;0.20;;;0.20;;
17925;SDS011;9088;55.674;13.354;2023-03-12T00:37:17;0.20;;;0.20;;
17925;SDS011;9088;55.674;13.354;2023-03-12T00:39:45;0.20;;;0.20;;
17925;SDS011;9088;55.674;13.354;2023-03-12T00:42:12;0.20;;;0.20;;
17925;SDS011;9088;55.674;13.354;2023-03-12T00:44:39;0.20;;;0.20;;
17925;SDS011;9088;55.674;13.354;2023-03-12T00:47:07;0.20;;;0.20;;
17925;SDS011;9088;55.674;13.354;2023-03-12T00:49:34;0.20;;;0.20;;
17925;SDS011;9088;55.674;13.354;2023-03-12T00:52:01;0.20;;;0.20;;
17925;SDS011;9088;55.674;13.354;2023-03-12T00:54:30;0.20;;;0.20;;
17925;SDS011;9088;55.674;13.354;2023-03-12T00:56:57;0.20;;;0.20;;
17925;SDS011;9088;55.674;13.354;2023-03-12T00:59:24;0.20;;;0.20;;
17925;SDS011;9088;55.674;13.354;2023-03-12T01:01:51;0.20;;;0.20;;
17925;SDS011;9088;55.674;13.354;2023-03-12T01:04:18;0.20;;;0.20;;
17925;SDS011;9088;55.674;13.354;2023-03-12T01:06:45;0.20;;;0.20;;
17925;SDS011;9088;55.674;13.354;2023-03-12T01:09:12;0.20;;;0.20;;
17925;SDS011;9088;55.674;13.354;2023-03-12T01:11:40;0.20;;;0.20;;
17925;SDS011;9088;55.674;13.354;2023-03-12T01:14:08;0.20;;;0.20;;
17925;SDS011;9088;55.674;13.354;2023-03-12T01:16:35;0.20;;;0.20;;
17925;SDS011;9088;55.674;13.354;2023-03-12T01:19:02;0.20;;;0.20;;
17925;SDS011;9088;55.674;13.354;2023-03-12T01:21:29;0.20;;;0.20;;
17925;SDS011;9088;55.674;13.354;2023-03-12T01:23:56;0.20;;;0.20;;
17925;SDS011;9088;55.674;13.354;2023-03-12T01:26:23;0.20;;;0.20;;
17925;SDS011;9088;55.674;13.354;2023-03-12T01:28:52;0.20;;;0.20;;
17925;SDS011;9088;55.674;13.354;2023-03-12T01:31:19;0.20;;;0.20;;
17925;SDS011;9088;55.674;13.354;2023-03-12T01:33:47;0.20;;;0.20;;
17925;SDS011;9088;55.674;13.354;2023-03-12T01:36:15;0.20;;;0.20;;
17925;SDS011;9088;55.674;13.354;2023-03-12T01:38:42;0.20;;;0.20;;
17925;SDS011;9088;55.674;13.354;2023-03-12T01:41:09;0.20;;;0.20;;
17925;SDS011;9088;55.674;13.354;2023-03-12T01:43:37;0.20;;;0.20;;
17925;SDS011;9088;55.674;13.354;2023-03-12T01:46:19;0.20;;;0.20;;
17925;SDS011;9088;55.674;13.354;2023-03-12T01:48:49;0.20;;;0.20;;
17925;SDS011;9088;55.674;13.354;2023-03-12T01:51:16;0.20;;;0.20;;
17925;SDS011;9088;55.674;13.354;2023-03-12T01:53:45;0.20;;;0.20;;
17925;SDS011;9088;55.674;13.354;2023-03-12T01:56:13;0.20;;;0.20;;
17925;SDS011;9088;55.674;13.354;2023-03-12T01:58:42;0.20;;;0.20;;
17925;SDS011;9088;55.674;13.354;2023-03-12T02:01:11;0.20;;;0.20;;
17925;SDS011;9088;55.674;13.354;2023-03-12T02:03:38;0.20;;;0.20;;
17925;SDS011;9088;55.674;13.354;2023-03-12T02:06:06;0.20;;;0.20;;
17925;SDS011;9088;55.674;13.354;2023-03-12T02:08:38;0.20;;;0.20;;
17925;SDS011;9088;55.674;13.354;2023-03-12T02:11:10;0.20;;;0.20;;
17925;SDS011;9088;55.674;13.354;2023-03-12T02:13:37;0.20;;;0.20;;
17925;SDS011;9088;55.674;13.354;2023-03-12T02:16:04;0.20;;;0.20;;
17925;SDS011;9088;55.674;13.354;2023-03-12T02:18:34;0.20;;;0.20;;
17925;SDS011;9088;55.674;13.354;2023-03-12T02:21:03;0.20;;;0.20;;
17925;SDS011;9088;55.674;13.354;2023-03-12T02:23:34;0.20;;;0.20;;
17925;SDS011;9088;55.674;13.354;2023-03-12T02:26:06;0.20;;;0.20;;
17925;SDS011;9088;55.674;13.354;2023-03-12T02:28:34;0.20;;;0.20;;
17925;SDS011;9088;55.674;13.354;2023-03-12T02:31:08;0.20;;;0.20;;
17925;SDS011;9088;55.674;13.354;2023-03-12T02:33:36;0.20;;;0.20;;
17925;SDS011;9088;55.674;13.354;2023-03-12T02:36:03;0.20;;;0.20;;
17925;SDS011;9088;55.674;13.354;2023-03-12T02:38:32;0.20;;;0.20;;
17925;SDS011;9088;55.674;13.354;2023-03-12T02:40:59;0.20;;;0.20;;
17925;SDS011;9088;55.674;13.354;2023-03-12T02:43:29;0.20;;;0.20;;
17925;SDS011;9088;55.674;13.354;2023-03-12T02:45:56;0.20;;;0.20;;
17925;SDS011;9088;55.674;13.354;2023-03-12T02:48:23;0.20;;;0.20;;
17925;SDS011;9088;55.674;13.354;2023-03-12T02:50:50;0.20;;;0.20;;
17925;SDS011;9088;55.674;13.354;2023-03-12T02:53:17;0.20;;;0.20;;
17925;SDS011;9088;55.674;13.354;2023-03-12T02:55:44;0.20;;;0.20;;
17925;SDS011;9088;55.674;13.354;2023-03-12T02:58:13;0.20;;;0.20;;
17925;SDS011;9088;55.674;13.354;2023-03-12T03:00:42;0.20;;;0.20;;
17925;SDS011;9088;55.674;13.354;2023-03-12T03:03:12;0.20;;;0.20;;
17925;SDS011;9088;55.674;13.354;2023-03-12T03:05:41;0.20;;;0.20;;
17925;SDS011;9088;55.674;13.354;2023-03-12T03:08:08;0.20;;;0.20;;
17925;SDS011;9088;55.674;13.354;2023-03-12T03:10:38;0.20;;;0.20;;
17925;SDS011;9088;55.674;13.354;2023-03-12T03:13:05;0.20;;;0.20;;
17925;SDS011;9088;55.674;13.354;2023-03-12T03:15:32;0.20;;;0.20;;
17925;SDS011;9088;55.674;13.354;2023-03-12T03:18:01;0.20;;;0.20;;
17925;SDS011;9088;55.674;13.354;2023-03-12T03:20:28;0.20;;;0.20;;
17925;SDS011;9088;55.674;13.354;2023-03-12T03:22:55;0.20;;;0.20;;
17925;SDS011;9088;55.674;13.354;2023-03-12T03:25:22;0.20;;;0.20;;
17925;SDS011;9088;55.674;13.354;2023-03-12T03:27:49;0.20;;;0.20;;
17925;SDS011;9088;55.674;13.354;2023-03-12T03:30:16;0.20;;;0.20;;
17925;SDS011;9088;55.674;13.354;2023-03-12T03:32:45;0.20;;;0.20;;
17925;SDS011;9088;55.674;13.354;2023-03-12T03:35:13;0.20;;;0.20;;
17925;SDS011;9088;55.674;13.354;2023-03-12T03:37:40;0.20;;;0.20;;
17925;SDS011;9088;55.674;13.354;2023-03-12T03:40:10;0.20;;;0.20;;
17925;SDS011;9088;55.674;13.354;2023-03-12T03:42:38;0.20;;;0.20;;
17925;SDS011;9088;55.674;13.354;2023-03-12T03:45:06;0.20;;;0.20;;
17925;SDS011;9088;55.674;13.354;2023-03-12T03:47:33;0.20;;;0.20;;
17925;SDS011;9088;55.674;13.354;2023-03-12T03:50:01;0.20;;;0.20;;
17925;SDS011;9088;55.674;13.354;2023-03-12T03:52:29;0.20;;;0.20;;
17925;SDS011;9088;55.674;13.354;2023-03-12T03:54:57;0.20;;;0.20;;
17925;SDS011;9088;55.674;13.354;2023-03-12T03:57:24;0.20;;;0.20;;
17925;SDS011;9088;55.674;13.354;2023-03-12T03:59:51;0.20;;;0.20;;
17925;SDS011;9088;55.674;13.354;2023-03-12T04:02:18;0.20;;;0.20;;
17925;SDS011;9088;55.674;13.354;2023-03-12T04:04:45;0.20;;;0.20;;
17925;SDS011;9088;55.674;13.354;2023-03-12T04:07:12;0.20;;;0.20;;
17925;SDS011;9088;55.674;13.354;2023-03-12T04:09:41;0.20;;;0.20;;
17925;SDS011;9088;55.674;13.354;2023-03-12T04:12:11;0.30;;;0.30;;
17925;SDS011;9088;55.674;13.354;2023-03-12T04:14:38;0.20;;;0.20;;
17925;SDS011;9088;55.674;13.354;2023-03-12T04:17:05;0.20;;;0.20;;
17925;SDS011;9088;55.674;13.354;2023-03-12T04:19:33;0.20;;;0.20;;
17925;SDS011;9088;55.674;13.354;2023-03-12T04:22:00;0.20;;;0.20;;
17925;SDS011;9088;55.674;13.354;2023-03-12T04:24:27;0.20;;;0.20;;
17925;SDS011;9088;55.674;13.354;2023-03-12T04:26:55;0.20;;;0.20;;
17925;SDS011;9088;55.674;13.354;2023-03-12T04:29:23;0.20;;;0.20;;
17925;SDS011;9088;55.674;13.354;2023-03-12T04:31:50;0.20;;;0.20;;
17925;SDS011;9088;55.674;13.354;2023-03-12T04:34:17;0.20;;;0.20;;
17925;SDS011;9088;55.674;13.354;2023-03-12T04:36:44;0.20;;;0.20;;
17925;SDS011;9088;55.674;13.354;2023-03-12T04:39:11;0.20;;;0.20;;
17925;SDS011;9088;55.674;13.354;2023-03-12T04:41:38;0.20;;;0.20;;
17925;SDS011;9088;55.674;13.354;2023-03-12T04:44:07;0.20;;;0.20;;
17925;SDS011;9088;55.674;13.354;2023-03-12T04:46:34;0.20;;;0.20;;
17925;SDS011;9088;55.674;13.354;2023-03-12T04:49:01;0.20;;;0.20;;
17925;SDS011;9088;55.674;13.354;2023-03-12T04:51:28;0.20;;;0.20;;
17925;SDS011;9088;55.674;13.354;2023-03-12T04:53:55;0.20;;;0.20;;
17925;SDS011;9088;55.674;13.354;2023-03-12T04:56:23;0.20;;;0.20;;
17925;SDS011;9088;55.674;13.354;2023-03-12T04:58:50;0.20;;;0.20;;
17925;SDS011;9088;55.674;13.354;2023-03-12T05:01:20;0.20;;;0.20;;
17925;SDS011;9088;55.674;13.354;2023-03-12T05:03:48;0.20;;;0.20;;
17925;SDS011;9088;55.674;13.354;2023-03-12T05:06:15;0.20;;;0.20;;
17925;SDS011;9088;55.674;13.354;2023-03-12T05:08:42;0.20;;;0.20;;
17925;SDS011;9088;55.674;13.354;2023-03-12T05:11:09;0.20;;;0.20;;
17925;SDS011;9088;55.674;13.354;2023-03-12T05:13:36;0.20;;;0.20;;
17925;SDS011;9088;55.674;13.354;2023-03-12T05:16:03;0.20;;;0.20;;
17925;SDS011;9088;55.674;13.354;2023-03-12T05:18:32;0.20;;;0.20;;
17925;SDS011;9088;55.674;13.354;2023-03-12T05:20:59;0.20;;;0.20;;
17925;SDS011;9088;55.674;13.354;2023-03-12T05:23:27;0.20;;;0.20;;
17925;SDS011;9088;55.674;13.354;2023-03-12T05:25:54;0.20;;;0.20;;
17925;SDS011;9088;55.674;13.354;2023-03-12T05:28:21;0.20;;;0.20;;
17925;SDS011;9088;55.674;13.354;2023-03-12T05:30:52;0.20;;;0.20;;
17925;SDS011;9088;55.674;13.354;2023-03-12T05:33:19;0.20;;;0.20;;
17925;SDS011;9088;55.674;13.354;2023-03-12T05:35:47;0.20;;;0.20;;
17925;SDS011;9088;55.674;13.354;2023-03-12T05:38:14;0.20;;;0.20;;
17925;SDS011;9088;55.674;13.354;2023-03-12T05:40:41;0.20;;;0.20;;
17925;SDS011;9088;55.674;13.354;2023-03-12T05:43:08;0.20;;;0.20;;
17925;SDS011;9088;55.674;13.354;2023-03-12T05:45:35;0.20;;;0.20;;
17925;SDS011;9088;55.674;13.354;2023-03-12T05:48:03;0.20;;;0.20;;
17925;SDS011;9088;55.674;13.354;2023-03-12T05:50:30;0.97;;;0.97;;
17925;SDS011;9088;55.674;13.354;2023-03-12T05:53:01;3.80;;;3.70;;
17925;SDS011;9088;55.674;13.354;2023-03-12T05:55:28;3.70;;;3.60;;
17925;SDS011;9088;55.674;13.354;2023-03-12T05:57:56;3.90;;;3.80;;
17925;SDS011;9088;55.674;13.354;2023-03-12T06:00:23;0.57;;;0.57;;
17925;SDS011;9088;55.674;13.354;2023-03-12T06:02:50;3.47;;;3.37;;
17925;SDS011;9088;55.674;13.354;2023-03-12T06:05:17;3.60;;;3.50;;
17925;SDS011;9088;55.674;13.354;2023-03-12T06:07:44;3.60;;;3.50;;
17925;SDS011;9088;55.674;13.354;2023-03-12T06:10:12;3.70;;;3.60;;
17925;SDS011;9088;55.674;13.354;2023-03-12T06:12:39;3.70;;;3.60;;
17925;SDS011;9088;55.674;13.354;2023-03-12T06:15:07;3.40;;;3.30;;
17925;SDS011;9088;55.674;13.354;2023-03-12T06:17:34;3.50;;;3.40;;
17925;SDS011;9088;55.674;13.354;2023-03-12T06:20:01;3.40;;;3.30;;
17925;SDS011;9088;55.674;13.354;2023-03-12T06:22:28;3.50;;;3.40;;
17925;SDS011;9088;55.674;13.354;2023-03-12T06:24:55;3.40;;;3.30;;
17925;SDS011;9088;55.674;13.354;2023-03-12T06:27:23;3.30;;;3.20;;
17925;SDS011;9088;55.674;13.354;2023-03-12T06:29:50;3.50;;;3.40;;
17925;SDS011;9088;55.674;13.354;2023-03-12T06:32:17;3.30;;;3.20;;
17925;SDS011;9088;55.674;13.354;2023-03-12T06:34:45;3.30;;;3.20;;
17925;SDS011;9088;55.674;13.354;2023-03-12T06:37:14;3.30;;;3.20;;
17925;SDS011;9088;55.674;13.354;2023-03-12T06:39:41;3.30;;;3.20;;
17925;SDS011;9088;55.674;13.354;2023-03-12T06:42:08;3.30;;;3.20;;
17925;SDS011;9088;55.674;13.354;2023-03-12T06:44:38;3.17;;;3.07;;
17925;SDS011;9088;55.674;13.354;2023-03-12T06:47:05;3.23;;;3.13;;
17925;SDS011;9088;55.674;13.354;2023-03-12T06:49:32;3.20;;;3.10;;
17925;SDS011;9088;55.674;13.354;2023-03-12T06:52:00;3.30;;;3.20;;
17925;SDS011;9088;55.674;13.354;2023-03-12T06:54:27;3.23;;;3.13;;
17925;SDS011;9088;55.674;13.354;2023-03-12T06:56:54;3.50;;;3.40;;
17925;SDS011;9088;55.674;13.354;2023-03-12T06:59:23;3.60;;;3.50;;
17925;SDS011;9088;55.674;13.354;2023-03-12T07:01:51;4.00;;;3.90;;
17925;SDS011;9088;55.674;13.354;2023-03-12T07:04:18;3.90;;;3.80;;
17925;SDS011;9088;55.674;13.354;2023-03-12T07:06:45;3.90;;;3.80;;
17925;SDS011;9088;55.674;13.354;2023-03-12T07:09:15;3.90;;;3.80;;
17925;SDS011;9088;55.674;13.354;2023-03-12T07:11:42;3.90;;;3.80;;
17925;SDS011;9088;55.674;13.354;2023-03-12T07:14:09;3.90;;;3.80;;
17925;SDS011;9088;55.674;13.354;2023-03-12T07:16:36;4.00;;;3.90;;
17925;SDS011;9088;55.674;13.354;2023-03-12T07:19:05;3.80;;;3.70;;
17925;SDS011;9088;55.674;13.354;2023-03-12T07:21:32;4.00;;;3.90;;
17925;SDS011;9088;55.674;13.354;2023-03-12T07:23:59;3.90;;;3.80;;
17925;SDS011;9088;55.674;13.354;2023-03-12T07:26:30;4.00;;;3.90;;
17925;SDS011;9088;55.674;13.354;2023-03-12T07:28:57;1.80;;;1.80;;
17925;SDS011;9088;55.674;13.354;2023-03-12T07:31:24;2.60;;;2.50;;
17925;SDS011;9088;55.674;13.354;2023-03-12T07:33:56;2.60;;;2.50;;
17925;SDS011;9088;55.674;13.354;2023-03-12T07:36:24;2.10;;;2.00;;
17925;SDS011;9088;55.674;13.354;2023-03-12T07:38:53;2.10;;;2.00;;
17925;SDS011;9088;55.674;13.354;2023-03-12T07:41:20;2.27;;;2.17;;
17925;SDS011;9088;55.674;13.354;2023-03-12T07:43:47;3.20;;;3.10;;
17925;SDS011;9088;55.674;13.354;2023-03-12T07:46:14;2.80;;;2.70;;
17925;SDS011;9088;55.674;13.354;2023-03-12T07:48:41;3.30;;;3.20;;
17925;SDS011;9088;55.674;13.354;2023-03-12T07:51:08;3.30;;;3.20;;
17925;SDS011;9088;55.674;13.354;2023-03-12T07:53:38;3.20;;;3.10;;
17925;SDS011;9088;55.674;13.354;2023-03-12T07:56:05;3.20;;;3.10;;
17925;SDS011;9088;55.674;13.354;2023-03-12T07:58:35;3.30;;;3.20;;
17925;SDS011;9088;55.674;13.354;2023-03-12T08:01:03;3.60;;;3.50;;
17925;SDS011;9088;55.674;13.354;2023-03-12T08:03:30;3.07;;;2.97;;
17925;SDS011;9088;55.674;13.354;2023-03-12T08:05:58;3.50;;;3.40;;
17925;SDS011;9088;55.674;13.354;2023-03-12T08:08:25;3.70;;;3.60;;
17925;SDS011;9088;55.674;13.354;2023-03-12T08:10:54;3.80;;;3.70;;
17925;SDS011;9088;55.674;13.354;2023-03-12T08:13:21;3.70;;;3.60;;
17925;SDS011;9088;55.674;13.354;2023-03-12T08:15:48;4.00;;;3.90;;
17925;SDS011;9088;55.674;13.354;2023-03-12T08:18:16;4.10;;;4.00;;
17925;SDS011;9088;55.674;13.354;2023-03-12T08:20:43;3.90;;;3.80;;
17925;SDS011;9088;55.674;13.354;2023-03-12T08:23:10;4.50;;;4.30;;
17925;SDS011;9088;55.674;13.354;2023-03-12T08:25:37;7.13;;;6.83;;
17925;SDS011;9088;55.674;13.354;2023-03-12T08:28:05;7.53;;;7.23;;
17925;SDS011;9088;55.674;13.354;2023-03-12T08:30:35;7.63;;;7.33;;
17925;SDS011;9088;55.674;13.354;2023-03-12T08:33:02;7.97;;;7.67;;
17925;SDS011;9088;55.674;13.354;2023-03-12T08:35:29;7.80;;;7.50;;
17925;SDS011;9088;55.674;13.354;2023-03-12T08:37:56;8.30;;;8.00;;
17925;SDS011;9088;55.674;13.354;2023-03-12T08:40:24;8.10;;;7.80;;
17925;SDS011;9088;55.674;13.354;2023-03-12T08:42:52;7.70;;;7.40;;
17925;SDS011;9088;55.674;13.354;2023-03-12T08:45:20;8.27;;;7.97;;
17925;SDS011;9088;55.674;13.354;2023-03-12T08:47:47;7.80;;;7.50;;
17925;SDS011;9088;55.674;13.354;2023-03-12T08:50:14;7.90;;;7.60;;
17925;SDS011;9088;55.674;13.354;2023-03-12T08:52:46;8.07;;;7.77;;
17925;SDS011;9088;55.674;13.354;2023-03-12T08:55:13;7.80;;;7.50;;
17925;SDS011;9088;55.674;13.354;2023-03-12T08:57:40;7.77;;;7.47;;
17925;SDS011;9088;55.674;13.354;2023-03-12T09:00:07;8.20;;;7.90;;
17925;SDS011;9088;55.674;13.354;2023-03-12T09:02:42;8.60;;;8.30;;
17925;SDS011;9088;55.674;13.354;2023-03-12T09:05:09;9.53;;;9.13;;
17925;SDS011;9088;55.674;13.354;2023-03-12T09:07:36;9.60;;;9.20;;
17925;SDS011;9088;55.674;13.354;2023-03-12T09:10:04;9.40;;;9.00;;
17925;SDS011;9088;55.674;13.354;2023-03-12T09:12:31;9.30;;;8.90;;
17925;SDS011;9088;55.674;13.354;2023-03-12T09:14:59;9.30;;;8.90;;
17925;SDS011;9088;55.674;13.354;2023-03-12T09:17:27;7.87;;;7.57;;
17925;SDS011;9088;55.674;13.354;2023-03-12T09:19:55;8.37;;;8.07;;
17925;SDS011;9088;55.674;13.354;2023-03-12T09:22:22;8.73;;;8.43;;
17925;SDS011;9088;55.674;13.354;2023-03-12T09:24:49;8.60;;;8.30;;
17925;SDS011;9088;55.674;13.354;2023-03-12T09:27:17;8.63;;;8.33;;
17925;SDS011;9088;55.674;13.354;2023-03-12T09:29:44;8.90;;;8.60;;
17925;SDS011;9088;55.674;13.354;2023-03-12T09:32:11;8.67;;;8.37;;
17925;SDS011;9088;55.674;13.354;2023-03-12T09:34:40;8.50;;;8.20;;
17925;SDS011;9088;55.674;13.354;2023-03-12T09:37:08;8.83;;;8.53;;
17925;SDS011;9088;55.674;13.354;2023-03-12T09:39:35;8.70;;;8.40;;
17925;SDS011;9088;55.674;13.354;2023-03-12T09:42:02;8.17;;;7.87;;
17925;SDS011;9088;55.674;13.354;2023-03-12T09:44:31;8.57;;;8.27;;
17925;SDS011;9088;55.674;13.354;2023-03-12T09:47:00;8.53;;;8.23;;
17925;SDS011;9088;55.674;13.354;2023-03-12T09:49:30;9.27;;;8.87;;
17925;SDS011;9088;55.674;13.354;2023-03-12T09:52:01;9.10;;;8.70;;
17925;SDS011;9088;55.674;13.354;2023-03-12T09:54:33;8.60;;;8.30;;
17925;SDS011;9088;55.674;13.354;2023-03-12T09:57:03;8.60;;;8.30;;
17925;SDS011;9088;55.674;13.354;2023-03-12T09:59:36;7.93;;;7.63;;
17925;SDS011;9088;55.674;13.354;2023-03-12T10:02:04;8.80;;;8.50;;
17925;SDS011;9088;55.674;13.354;2023-03-12T10:04:37;9.00;;;8.60;;
17925;SDS011;9088;55.674;13.354;2023-03-12T10:07:07;8.80;;;8.50;;
17925;SDS011;9088;55.674;13.354;2023-03-12T10:09:49;9.10;;;8.70;;
17925;SDS011;9088;55.674;13.354;2023-03-12T10:12:23;8.63;;;8.33;;
17925;SDS011;9088;55.674;13.354;2023-03-12T10:14:55;8.37;;;8.07;;
17925;SDS011;9088;55.674;13.354;2023-03-12T10:17:34;8.93;;;8.57;;
17925;SDS011;9088;55.674;13.354;2023-03-12T10:20:21;9.20;;;8.80;;
17925;SDS011;9088;55.674;13.354;2023-03-12T10:22:51;8.60;;;8.30;;
17925;SDS011;9088;55.674;13.354;2023-03-12T10:25:23;8.80;;;8.50;;
17925;SDS011;9088;55.674;13.354;2023-03-12T10:27:52;8.90;;;8.57;;
17925;SDS011;9088;55.674;13.354;2023-03-12T10:30:21;8.40;;;8.10;;
17925;SDS011;9088;55.674;13.354;2023-03-12T10:32:50;8.97;;;8.60;;
17925;SDS011;9088;55.674;13.354;2023-03-12T10:35:19;8.17;;;7.87;;
17925;SDS011;9088;55.674;13.354;2023-03-12T10:37:47;8.80;;;8.50;;
17925;SDS011;9088;55.674;13.354;2023-03-12T10:40:16;8.27;;;7.97;;
17925;SDS011;9088;55.674;13.354;2023-03-12T10:42:45;8.00;;;7.70;;
17925;SDS011;9088;55.674;13.354;2023-03-12T10:45:15;8.03;;;7.73;;
17925;SDS011;9088;55.674;13.354;2023-03-12T10:47:44;8.20;;;7.90;;
17925;SDS011;9088;55.674;13.354;2023-03-12T10:50:16;7.73;;;7.43;;
17925;SDS011;9088;55.674;13.354;2023-03-12T10:52:44;8.10;;;7.80;;
17925;SDS011;9088;55.674;13.354;2023-03-12T10:55:12;7.80;;;7.50;;
17925;SDS011;9088;55.674;13.354;2023-03-12T10:57:47;8.10;;;7.80;;
17925;SDS011;9088;55.674;13.354;2023-03-12T11:00:17;8.20;;;7.90;;
17925;SDS011;9088;55.674;13.354;2023-03-12T11:02:45;7.93;;;7.63;;
17925;SDS011;9088;55.674;13.354;2023-03-12T11:05:19;8.30;;;8.00;;
17925;SDS011;9088;55.674;13.354;2023-03-12T11:07:46;8.40;;;8.10;;
17925;SDS011;9088;55.674;13.354;2023-03-12T11:10:15;8.43;;;8.13;;
17925;SDS011;9088;55.674;13.354;2023-03-12T11:12:51;7.70;;;7.40;;
17925;SDS011;9088;55.674;13.354;2023-03-12T11:15:20;7.83;;;7.53;;
17925;SDS011;9088;55.674;13.354;2023-03-12T11:17:48;8.00;;;7.70;;
17925;SDS011;9088;55.674;13.354;2023-03-12T11:20:24;7.77;;;7.47;;
17925;SDS011;9088;55.674;13.354;2023-03-12T11:22:51;7.60;;;7.30;;
17925;SDS011;9088;55.674;13.354;2023-03-12T11:25:21;8.13;;;7.83;;
17925;SDS011;9088;55.674;13.354;2023-03-12T11:27:51;7.97;;;7.67;;
17925;SDS011;9088;55.674;13.354;2023-03-12T11:30:21;8.30;;;8.00;;
17925;SDS011;9088;55.674;13.354;2023-03-12T11:32:48;7.83;;;7.53;;
17925;SDS011;9088;55.674;13.354;2023-03-12T11:35:18;7.63;;;7.33;;
17925;SDS011;9088;55.674;13.354;2023-03-12T11:37:52;8.10;;;7.80;;
17925;SDS011;9088;55.674;13.354;2023-03-12T11:40:27;8.03;;;7.73;;
17925;SDS011;9088;55.674;13.354;2023-03-12T11:43:01;7.80;;;7.50;;
17925;SDS011;9088;55.674;13.354;2023-03-12T11:45:33;8.03;;;7.73;;
17925;SDS011;9088;55.674;13.354;2023-03-12T11:48:05;7.77;;;7.47;;
17925;SDS011;9088;55.674;13.354;2023-03-12T11:50:41;8.33;;;8.03;;
17925;SDS011;9088;55.674;13.354;2023-03-12T11:53:16;7.50;;;7.20;;
17925;SDS011;9088;55.674;13.354;2023-03-12T11:55:55;7.67;;;7.37;;
17925;SDS011;9088;55.674;13.354;2023-03-12T11:58:28;7.60;;;7.30;;
17925;SDS011;9088;55.674;13.354;2023-03-12T12:00:59;7.47;;;7.17;;
17925;SDS011;9088;55.674;13.354;2023-03-12T12:06:12;8.10;;;7.80;;
17925;SDS011;9088;55.674;13.354;2023-03-12T12:08:48;7.40;;;7.10;;
17925;SDS011;9088;55.674;13.354;2023-03-12T12:11:20;6.83;;;6.53;;
17925;SDS011;9088;55.674;13.354;2023-03-12T12:13:57;7.67;;;7.37;;
17925;SDS011;9088;55.674;13.354;2023-03-12T12:16:35;6.97;;;6.67;;
17925;SDS011;9088;55.674;13.354;2023-03-12T12:19:09;7.97;;;7.67;;
17925;SDS011;9088;55.674;13.354;2023-03-12T12:21:46;8.00;;;7.70;;
17925;SDS011;9088;55.674;13.354;2023-03-12T12:24:18;8.43;;;8.13;;
17925;SDS011;9088;55.674;13.354;2023-03-12T12:26:51;7.63;;;7.33;;
17925;SDS011;9088;55.674;13.354;2023-03-12T12:29:21;7.57;;;7.27;;
17925;SDS011;9088;55.674;13.354;2023-03-12T12:31:52;8.13;;;7.83;;
17925;SDS011;9088;55.674;13.354;2023-03-12T12:34:30;7.50;;;7.20;;
17925;SDS011;9088;55.674;13.354;2023-03-12T12:37:10;7.33;;;7.03;;
17925;SDS011;9088;55.674;13.354;2023-03-12T12:39:44;7.83;;;7.53;;
17925;SDS011;9088;55.674;13.354;2023-03-12T12:42:13;7.90;;;7.60;;
17925;SDS011;9088;55.674;13.354;2023-03-12T12:44:45;7.83;;;7.53;;
17925;SDS011;9088;55.674;13.354;2023-03-12T12:47:15;8.40;;;8.10;;
17925;SDS011;9088;55.674;13.354;2023-03-12T12:49:44;7.50;;;7.20;;
17925;SDS011;9088;55.674;13.354;2023-03-12T12:52:15;7.77;;;7.47;;
17925;SDS011;9088;55.674;13.354;2023-03-12T12:54:46;6.93;;;6.63;;
17925;SDS011;9088;55.674;13.354;2023-03-12T12:57:16;7.60;;;7.30;;
17925;SDS011;9088;55.674;13.354;2023-03-12T12:59:50;7.53;;;7.23;;
17925;SDS011;9088;55.674;13.354;2023-03-12T13:02:22;7.43;;;7.13;;
17925;SDS011;9088;55.674;13.354;2023-03-12T13:04:53;7.80;;;7.50;;
17925;SDS011;9088;55.674;13.354;2023-03-12T13:07:28;7.47;;;7.17;;
17925;SDS011;9088;55.674;13.354;2023-03-12T13:09:56;7.43;;;7.13;;
17925;SDS011;9088;55.674;13.354;2023-03-12T13:12:24;7.10;;;6.80;;
17925;SDS011;9088;55.674;13.354;2023-03-12T13:14:55;7.33;;;7.03;;
17925;SDS011;9088;55.674;13.354;2023-03-12T13:17:26;7.57;;;7.27;;
17925;SDS011;9088;55.674;13.354;2023-03-12T13:20:11;7.17;;;6.87;;
17925;SDS011;9088;55.674;13.354;2023-03-12T13:22:42;7.30;;;7.00;;
17925;SDS011;9088;55.674;13.354;2023-03-12T13:25:15;7.40;;;7.10;;
17925;SDS011;9088;55.674;13.354;2023-03-12T13:27:47;7.20;;;6.90;;
17925;SDS011;9088;55.674;13.354;2023-03-12T13:33:14;7.10;;;6.80;;
17925;SDS011;9088;55.674;13.354;2023-03-12T13:35:42;6.47;;;6.27;;
17925;SDS011;9088;55.674;13.354;2023-03-12T13:38:16;6.60;;;6.37;;
17925;SDS011;9088;55.674;13.354;2023-03-12T13:40:54;6.83;;;6.53;;
17925;SDS011;9088;55.674;13.354;2023-03-12T13:43:32;6.80;;;6.50;;
17925;SDS011;9088;55.674;13.354;2023-03-12T13:46:06;6.97;;;6.67;;
17925;SDS011;9088;55.674;13.354;2023-03-12T13:48:35;6.43;;;6.23;;
17925;SDS011;9088;55.674;13.354;2023-03-12T13:51:10;6.70;;;6.40;;
17925;SDS011;9088;55.674;13.354;2023-03-12T13:53:38;6.83;;;6.53;;
17925;SDS011;9088;55.674;13.354;2023-03-12T13:56:06;6.80;;;6.50;;
17925;SDS011;9088;55.674;13.354;2023-03-12T13:58:38;6.50;;;6.30;;
17925;SDS011;9088;55.674;13.354;2023-03-12T14:01:06;6.70;;;6.40;;
17925;SDS011;9088;55.674;13.354;2023-03-12T14:03:41;6.30;;;6.10;;
17925;SDS011;9088;55.674;13.354;2023-03-12T14:06:12;6.60;;;6.37;;
17925;SDS011;9088;55.674;13.354;2023-03-12T14:08:42;6.30;;;6.10;;
17925;SDS011;9088;55.674;13.354;2023-03-12T14:11:20;5.97;;;5.77;;
17925;SDS011;9088;55.674;13.354;2023-03-12T14:14:00;6.20;;;6.00;;
17925;SDS011;9088;55.674;13.354;2023-03-12T14:16:32;6.10;;;5.90;;
17925;SDS011;9088;55.674;13.354;2023-03-12T14:19:03;6.53;;;6.33;;
17925;SDS011;9088;55.674;13.354;2023-03-12T14:21:32;6.43;;;6.23;;
17925;SDS011;9088;55.674;13.354;2023-03-12T14:24:00;6.70;;;6.43;;
17925;SDS011;9088;55.674;13.354;2023-03-12T14:26:29;6.30;;;6.10;;
17925;SDS011;9088;55.674;13.354;2023-03-12T14:28:58;5.83;;;5.63;;
17925;SDS011;9088;55.674;13.354;2023-03-12T14:31:27;5.90;;;5.70;;
17925;SDS011;9088;55.674;13.354;2023-03-12T14:33:56;5.80;;;5.60;;
17925;SDS011;9088;55.674;13.354;2023-03-12T14:36:26;5.37;;;5.17;;
17925;SDS011;9088;55.674;13.354;2023-03-12T14:38:57;5.93;;;5.73;;
17925;SDS011;9088;55.674;13.354;2023-03-12T14:41:26;5.10;;;4.90;;
17925;SDS011;9088;55.674;13.354;2023-03-12T14:43:56;5.60;;;5.40;;
17925;SDS011;9088;55.674;13.354;2023-03-12T14:46:29;5.27;;;5.07;;
17925;SDS011;9088;55.674;13.354;2023-03-12T14:48:56;5.30;;;5.10;;
17925;SDS011;9088;55.674;13.354;2023-03-12T14:51:23;5.27;;;5.07;;
17925;SDS011;9088;55.674;13.354;2023-03-12T14:53:53;5.20;;;5.00;;
17925;SDS011;9088;55.674;13.354;2023-03-12T14:56:21;5.27;;;5.07;;
17925;SDS011;9088;55.674;13.354;2023-03-12T14:58:50;5.50;;;5.30;;
17925;SDS011;9088;55.674;13.354;2023-03-12T15:01:18;5.07;;;4.87;;
17925;SDS011;9088;55.674;13.354;2023-03-12T15:03:46;5.40;;;5.20;;